createdAt,value
2023-03-02T00:01:26.407Z,102657.78
2023-03-02T00:03:53.784Z,102656.97
2023-03-02T00:06:21.306Z,102655.19
2023-03-02T00:08:50.024Z,102649.16
2023-03-02T00:11:18.164Z,102647.44
2023-03-02T00:13:44.771Z,102638.97
2023-03-02T00:16:11.495Z,102639.63
2023-03-02T00:18:38.130Z,102634.41
2023-03-02T00:21:05.406Z,102624.91
2023-03-02T00:23:32.138Z,102628.22
2023-03-02T00:26:00.849Z,102628.88
2023-03-02T00:28:30.917Z,102625.41
2023-03-02T00:31:00.487Z,102629.63
2023-03-02T00:33:27.418Z,102626.91
2023-03-02T00:35:53.936Z,102618.97
2023-03-02T00:38:22.470Z,102611.03
2023-03-02T00:40:51.906Z,102618.63
2023-03-02T00:43:18.467Z,102614.84
2023-03-02T00:45:45.756Z,102617.34
2023-03-02T00:48:12.551Z,102612.84
2023-03-02T00:50:41.136Z,102605.13
2023-03-02T00:53:10.767Z,102599.16
2023-03-02T00:55:38.396Z,102599.94
2023-03-02T00:58:06.579Z,102603.34
2023-03-02T01:00:35.607Z,102599.88
2023-03-02T01:03:06.151Z,102602.53
2023-03-02T01:05:37.932Z,102604.31
2023-03-02T01:08:07.165Z,102614.50
2023-03-02T01:10:45.924Z,102610.13
2023-03-02T01:13:12.891Z,102614.56
2023-03-02T01:15:39.730Z,102610.28
2023-03-02T01:18:10.673Z,102609.41
2023-03-02T01:20:38.601Z,102603.19
2023-03-02T01:23:07.632Z,102600.53
2023-03-02T01:25:34.465Z,102594.44
2023-03-02T01:28:01.120Z,102590.72
2023-03-02T01:30:27.698Z,102599.06
2023-03-02T01:32:54.411Z,102593.63
2023-03-02T01:35:22.270Z,102587.53
2023-03-02T01:37:48.786Z,102590.03
2023-03-02T01:40:19.924Z,102594.28
2023-03-02T01:42:52.545Z,102588.25
2023-03-02T01:45:52.296Z,102588.91
2023-03-02T01:48:51.335Z,102585.22
2023-03-02T01:51:30.912Z,102579.09
2023-03-02T01:54:04.323Z,102577.47
2023-03-02T01:56:34.898Z,102579.09
2023-03-02T01:59:12.361Z,102572.25
2023-03-02T02:01:42.831Z,102568.88
2023-03-02T02:04:09.958Z,102573.28
2023-03-02T02:06:52.381Z,102571.59
2023-03-02T02:09:23.539Z,102568.94
2023-03-02T02:11:50.158Z,102566.16
2023-03-02T02:14:16.840Z,102560.91
2023-03-02T02:16:48.155Z,102555.63
2023-03-02T02:19:36.732Z,102552.94
2023-03-02T02:22:03.383Z,102557.06
2023-03-02T02:24:59.464Z,102563.09
2023-03-02T02:27:31.731Z,102558.00
2023-03-02T02:29:58.515Z,102558.84
2023-03-02T02:32:34.456Z,102556.41
2023-03-02T02:35:14.576Z,102557.22
2023-03-02T02:37:46.514Z,102560.50
2023-03-02T02:40:23.209Z,102558.00
2023-03-02T02:42:52.965Z,102559.78
2023-03-02T02:45:26.580Z,102551.97
2023-03-02T02:47:59.748Z,102553.44
2023-03-02T02:50:33.866Z,102555.78
2023-03-02T02:53:07.619Z,102551.34
2023-03-02T02:55:38.912Z,102548.47
2023-03-02T02:58:33.685Z,102543.41
2023-03-02T03:01:01.625Z,102539.69
2023-03-02T03:03:37.568Z,102543.25
2023-03-02T03:06:17.169Z,102538.25
2023-03-02T03:08:43.752Z,102540.75
2023-03-02T03:11:23.211Z,102532.84
2023-03-02T03:14:16.117Z,102531.88
2023-03-02T03:16:48.723Z,102528.44
2023-03-02T03:19:21.246Z,102530.09
2023-03-02T03:21:51.293Z,102536.09
2023-03-02T03:24:19.173Z,102538.56
2023-03-02T03:26:47.789Z,102536.63
2023-03-02T03:29:19.106Z,102532.25
2023-03-02T03:31:47.290Z,102535.69
2023-03-02T03:34:14.315Z,102535.53
2023-03-02T03:36:43.535Z,102540.84
2023-03-02T03:39:12.362Z,102541.00
2023-03-02T03:41:40.469Z,102532.38
2023-03-02T03:44:11.188Z,102526.31
2023-03-02T03:46:42.804Z,102531.59
2023-03-02T03:49:12.000Z,102537.63
2023-03-02T03:51:38.691Z,102534.25
2023-03-02T03:54:08.763Z,102529.97
2023-03-02T03:56:41.751Z,102524.00
2023-03-02T03:59:20.886Z,102515.56
2023-03-02T04:01:59.218Z,102512.06
2023-03-02T04:04:36.864Z,102516.44
2023-03-02T04:07:08.893Z,102509.50
2023-03-02T04:09:37.982Z,102518.06
2023-03-02T04:12:08.662Z,102532.69
2023-03-02T04:14:36.481Z,102532.63
2023-03-02T04:17:06.181Z,102531.00
2023-03-02T04:19:37.321Z,102535.41
2023-03-02T04:22:05.010Z,102530.38
2023-03-02T04:24:33.002Z,102529.47
2023-03-02T04:27:02.487Z,102538.09
2023-03-02T04:29:32.257Z,102536.47
2023-03-02T04:32:02.196Z,102528.88
2023-03-02T04:34:31.146Z,102535.91
2023-03-02T04:36:57.768Z,102534.22
2023-03-02T04:39:26.625Z,102523.00
2023-03-02T04:41:53.578Z,102532.53
2023-03-02T04:44:23.926Z,102517.84
2023-03-02T04:46:51.422Z,102523.09
2023-03-02T04:49:19.661Z,102527.50
2023-03-02T04:51:48.219Z,102528.50
2023-03-02T04:54:24.767Z,102531.94
2023-03-02T04:56:52.994Z,102529.44
2023-03-02T04:59:26.320Z,102526.94
2023-03-02T05:01:55.573Z,102527.91
2023-03-02T05:04:28.017Z,102534.81
2023-03-02T05:06:54.858Z,102527.16
2023-03-02T05:09:27.093Z,102528.06
2023-03-02T05:11:58.964Z,102521.94
2023-03-02T05:14:26.828Z,102521.94
2023-03-02T05:16:56.753Z,102526.28
2023-03-02T05:19:30.385Z,102529.00
2023-03-02T05:21:57.097Z,102530.78
2023-03-02T05:24:23.722Z,102521.34
2023-03-02T05:26:50.589Z,102526.59
2023-03-02T05:29:19.507Z,102528.41
2023-03-02T05:31:47.550Z,102531.00
2023-03-02T05:34:17.567Z,102535.28
2023-03-02T05:36:45.698Z,102535.28
2023-03-02T05:39:15.225Z,102531.00
2023-03-02T05:41:42.502Z,102529.25
2023-03-02T05:44:10.339Z,102541.25
2023-03-02T05:46:37.639Z,102532.56
2023-03-02T05:49:04.572Z,102539.50
2023-03-02T05:51:31.232Z,102543.81
2023-03-02T05:53:57.729Z,102542.16
2023-03-02T05:56:24.414Z,102545.53
2023-03-02T05:58:51.158Z,102537.00
2023-03-02T06:01:17.713Z,102535.34
2023-03-02T06:03:44.405Z,102536.22
2023-03-02T06:06:14.968Z,102537.28
2023-03-02T06:08:43.202Z,102538.16
2023-03-02T06:11:10.672Z,102530.59
2023-03-02T06:13:37.623Z,102534.91
2023-03-02T06:16:04.790Z,102539.28
2023-03-02T06:18:31.735Z,102539.28
2023-03-02T06:20:58.929Z,102541.94
2023-03-02T06:23:27.422Z,102536.78
2023-03-02T06:25:54.477Z,102534.19
2023-03-02T06:28:21.866Z,102533.47
2023-03-02T06:30:49.680Z,102532.72
2023-03-02T06:33:21.233Z,102529.34
2023-03-02T06:35:48.091Z,102531.19
2023-03-02T06:38:15.268Z,102532.94
2023-03-02T06:40:43.557Z,102526.13
2023-03-02T06:43:12.855Z,102529.72
2023-03-02T06:45:39.846Z,102525.53
2023-03-02T06:48:07.728Z,102522.88
2023-03-02T06:50:36.905Z,102533.19
2023-03-02T06:53:03.441Z,102526.34
2023-03-02T06:55:33.212Z,102523.81
2023-03-02T06:58:04.588Z,102529.97
2023-03-02T07:00:32.058Z,102530.81
2023-03-02T07:02:58.813Z,102524.03
2023-03-02T07:05:26.595Z,102527.66
2023-03-02T07:07:53.401Z,102525.16
2023-03-02T07:10:20.343Z,102526.13
2023-03-02T07:12:47.644Z,102534.88
2023-03-02T07:15:14.862Z,102530.69
2023-03-02T07:17:43.488Z,102523.81
2023-03-02T07:20:14.494Z,102526.53
2023-03-02T07:22:42.707Z,102527.50
2023-03-02T07:25:11.437Z,102528.47
2023-03-02T07:27:41.730Z,102532.88
2023-03-02T07:30:09.396Z,102534.81
2023-03-02T07:32:37.466Z,102532.16
2023-03-02T07:35:06.563Z,102531.09
2023-03-02T07:37:33.186Z,102524.28
2023-03-02T07:40:01.948Z,102519.84
2023-03-02T07:42:28.533Z,102521.63
2023-03-02T07:44:57.820Z,102511.44
2023-03-02T07:47:26.987Z,102516.81
2023-03-02T07:49:53.567Z,102507.34
2023-03-02T07:52:20.065Z,102510.03
2023-03-02T07:54:49.159Z,102505.81
2023-03-02T07:57:16.435Z,102510.19
2023-03-02T07:59:43.771Z,102519.66
2023-03-02T08:02:20.246Z,102516.22
2023-03-02T08:04:47.274Z,102526.59
2023-03-02T08:07:13.945Z,102529.25
2023-03-02T08:09:40.576Z,102528.59
2023-03-02T08:12:09.246Z,102533.06
2023-03-02T08:14:36.874Z,102530.63
2023-03-02T08:17:08.252Z,102527.31
2023-03-02T08:19:34.937Z,102524.91
2023-03-02T08:22:02.357Z,102525.56
2023-03-02T08:24:28.846Z,102517.72
2023-03-02T08:26:55.919Z,102518.56
2023-03-02T08:29:24.614Z,102515.13
2023-03-02T08:31:56.618Z,102516.91
2023-03-02T08:34:23.413Z,102511.88
2023-03-02T08:36:49.991Z,102509.53
2023-03-02T08:39:16.543Z,102508.03
2023-03-02T08:41:43.877Z,102508.13
2023-03-02T08:44:10.828Z,102511.72
2023-03-02T08:46:37.310Z,102506.53
2023-03-02T08:49:03.848Z,102507.53
2023-03-02T08:51:31.440Z,102513.56
2023-03-02T08:53:58.150Z,102509.25
2023-03-02T08:56:24.747Z,102505.94
2023-03-02T08:58:53.848Z,102501.94
2023-03-02T09:01:23.673Z,102501.31
2023-03-02T09:03:54.966Z,102497.31
2023-03-02T09:06:24.999Z,102490.72
2023-03-02T09:08:51.979Z,102488.41
2023-03-02T09:11:19.313Z,102488.47
2023-03-02T09:13:46.668Z,102491.19
2023-03-02T09:16:13.898Z,102489.50
2023-03-02T09:18:41.136Z,102475.72
2023-03-02T09:21:07.858Z,102486.28
2023-03-02T09:23:36.584Z,102483.03
2023-03-02T09:26:04.523Z,102484.06
2023-03-02T09:28:33.769Z,102491.25
2023-03-02T09:31:03.945Z,102488.03
2023-03-02T09:33:32.271Z,102483.84
2023-03-02T09:35:59.317Z,102492.69
2023-03-02T09:38:28.483Z,102496.91
2023-03-02T09:41:20.194Z,102504.59
2023-03-02T09:44:00.153Z,102495.97
2023-03-02T09:46:59.940Z,102500.69
2023-03-02T09:49:53.729Z,102505.78
2023-03-02T09:52:37.200Z,102503.88
2023-03-02T09:55:19.902Z,102500.44
2023-03-02T09:57:47.184Z,102490.09
2023-03-02T10:00:28.091Z,102494.63
2023-03-02T10:03:14.825Z,102494.06
2023-03-02T10:05:54.864Z,102496.84
2023-03-02T10:08:31.355Z,102499.53
2023-03-02T10:11:18.127Z,102496.38
2023-03-02T10:13:50.989Z,102500.50
2023-03-02T10:16:41.335Z,102501.38
2023-03-02T10:19:12.198Z,102501.59
2023-03-02T10:22:09.900Z,102502.66
2023-03-02T10:24:46.769Z,102503.66
2023-03-02T10:27:28.312Z,102507.25
2023-03-02T10:30:22.846Z,102512.38
2023-03-02T10:32:52.934Z,102509.78
2023-03-02T10:35:28.725Z,102504.53
2023-03-02T10:38:07.190Z,102509.78
2023-03-02T10:40:40.325Z,102505.69
2023-03-02T10:43:30.535Z,102502.47
2023-03-02T10:46:03.086Z,102495.78
2023-03-02T10:48:40.885Z,102493.09
2023-03-02T10:51:23.920Z,102490.50
2023-03-02T10:53:51.105Z,102489.59
2023-03-02T10:56:21.670Z,102486.94
2023-03-02T10:58:49.331Z,102487.91
2023-03-02T11:01:21.484Z,102484.53
2023-03-02T11:04:16.325Z,102490.72
2023-03-02T11:06:44.122Z,102489.91
2023-03-02T11:09:16.884Z,102490.84
2023-03-02T11:11:56.572Z,102485.78
2023-03-02T11:14:23.934Z,102483.34
2023-03-02T11:16:54.891Z,102480.81
2023-03-02T11:19:36.910Z,102470.75
2023-03-02T11:22:34.224Z,102471.72
2023-03-02T11:25:06.655Z,102466.00
2023-03-02T11:27:39.290Z,102464.22
2023-03-02T11:30:16.110Z,102459.06
2023-03-02T11:33:21.793Z,102456.47
2023-03-02T11:35:55.925Z,102453.94
2023-03-02T11:38:34.122Z,102460.84
2023-03-02T11:41:10.630Z,102458.25
2023-03-02T11:43:37.173Z,102459.38
2023-03-02T11:46:13.830Z,102462.22
2023-03-02T11:48:49.342Z,102462.44
2023-03-02T11:51:23.723Z,102448.78
2023-03-02T11:54:20.326Z,102449.00
2023-03-02T11:56:47.092Z,102452.69
2023-03-02T11:59:20.330Z,102450.28
2023-03-02T12:01:52.739Z,102446.88
2023-03-02T12:04:32.751Z,102455.50
2023-03-02T12:07:23.385Z,102452.97
2023-03-02T12:10:08.943Z,102457.56
2023-03-02T12:12:48.189Z,102448.22
2023-03-02T12:15:39.010Z,102444.22
2023-03-02T12:18:21.203Z,102432.41
2023-03-02T12:21:02.918Z,102422.00
2023-03-02T12:23:31.582Z,102419.63
2023-03-02T12:26:07.868Z,102412.88
2023-03-02T12:28:39.638Z,102423.16
2023-03-02T12:31:12.644Z,102428.53
2023-03-02T12:33:49.168Z,102415.75
2023-03-02T12:36:37.678Z,102414.84
2023-03-02T12:39:21.570Z,102413.16
2023-03-02T12:42:33.384Z,102408.91
2023-03-02T12:45:22.348Z,102405.72
2023-03-02T12:47:56.985Z,102400.69
2023-03-02T12:50:32.450Z,102395.53
2023-03-02T12:53:07.524Z,102391.50
2023-03-02T12:55:34.888Z,102384.72
2023-03-02T12:58:02.310Z,102388.31
2023-03-02T13:00:34.659Z,102384.63
2023-03-02T13:03:03.072Z,102389.81
2023-03-02T13:05:31.193Z,102383.03
2023-03-02T13:08:30.981Z,102386.59
2023-03-02T13:11:02.192Z,102376.22
2023-03-02T13:13:43.039Z,102373.53
2023-03-02T13:16:32.728Z,102375.97
2023-03-02T13:19:03.698Z,102373.47
2023-03-02T13:21:37.655Z,102376.22
2023-03-02T13:24:25.990Z,102370.38
2023-03-02T13:27:20.096Z,102359.44
2023-03-02T13:29:49.612Z,102364.03
2023-03-02T13:32:29.006Z,102359.88
2023-03-02T13:34:59.017Z,102357.28
2023-03-02T13:37:32.172Z,102358.19
2023-03-02T13:40:05.577Z,102358.28
2023-03-02T13:42:38.452Z,102355.94
2023-03-02T13:45:22.155Z,102354.41
2023-03-02T13:47:50.122Z,102347.56
2023-03-02T13:50:20.051Z,102343.41
2023-03-02T13:52:50.573Z,102343.56
2023-03-02T13:55:20.118Z,102341.06
2023-03-02T13:57:49.838Z,102332.44
2023-03-02T14:00:30.301Z,102334.34
2023-03-02T14:02:57.152Z,102334.44
2023-03-02T14:05:33.665Z,102326.47
2023-03-02T14:08:03.006Z,102332.41
2023-03-02T14:10:36.595Z,102326.34
2023-03-02T14:13:12.337Z,102321.97
2023-03-02T14:15:42.768Z,102328.91
2023-03-02T14:18:33.061Z,102316.78
2023-03-02T14:21:01.932Z,102310.66
2023-03-02T14:23:28.738Z,102310.63
2023-03-02T14:25:56.858Z,102304.56
2023-03-02T14:28:31.469Z,102303.69
2023-03-02T14:31:01.593Z,102302.94
2023-03-02T14:33:29.784Z,102304.59
2023-03-02T14:36:00.641Z,102292.16
2023-03-02T14:38:28.076Z,102296.41
2023-03-02T14:40:56.178Z,102300.81
2023-03-02T14:43:27.249Z,102288.00
2023-03-02T14:45:57.943Z,102287.84
2023-03-02T14:48:27.462Z,102295.59
2023-03-02T14:50:54.126Z,102286.97
2023-03-02T14:53:30.444Z,102296.56
2023-03-02T14:55:57.739Z,102286.91
2023-03-02T14:58:33.208Z,102284.94
2023-03-02T15:01:08.997Z,102284.03
2023-03-02T15:03:37.400Z,102277.09
2023-03-02T15:06:07.614Z,102284.19
2023-03-02T15:08:35.082Z,102288.47
2023-03-02T15:11:03.756Z,102276.38
2023-03-02T15:13:32.075Z,102277.97
2023-03-02T15:16:03.458Z,102281.44
2023-03-02T15:18:31.285Z,102270.16
2023-03-02T15:20:58.509Z,102269.25
2023-03-02T15:23:28.103Z,102276.94
2023-03-02T15:26:03.457Z,102271.75
2023-03-02T15:28:31.451Z,102270.16
2023-03-02T15:31:14.809Z,102260.72
2023-03-02T15:33:45.846Z,102258.19
2023-03-02T15:36:14.700Z,102252.25
2023-03-02T15:38:43.358Z,102247.22
2023-03-02T15:41:15.539Z,102243.78
2023-03-02T15:43:42.293Z,102246.41
2023-03-02T15:46:12.593Z,102242.97
2023-03-02T15:48:41.541Z,102243.88
2023-03-02T15:51:08.617Z,102240.31
2023-03-02T15:53:38.648Z,102230.75
2023-03-02T15:56:12.135Z,102242.81
2023-03-02T15:58:38.714Z,102233.22
2023-03-02T16:01:10.385Z,102235.91
2023-03-02T16:03:37.622Z,102241.19
2023-03-02T16:06:07.470Z,102241.19
2023-03-02T16:08:35.634Z,102239.44
2023-03-02T16:11:09.031Z,102242.78
2023-03-02T16:13:41.062Z,102244.53
2023-03-02T16:16:08.267Z,102257.50
2023-03-02T16:18:35.673Z,102245.41
2023-03-02T16:21:03.507Z,102254.91
2023-03-02T16:23:30.198Z,102252.25
2023-03-02T16:26:10.189Z,102254.81
2023-03-02T16:28:47.972Z,102253.94
2023-03-02T16:31:20.922Z,102255.72
2023-03-02T16:33:53.382Z,102255.75
2023-03-02T16:36:21.216Z,102271.28
2023-03-02T16:38:49.917Z,102264.38
2023-03-02T16:41:22.034Z,102260.84
2023-03-02T16:43:56.224Z,102260.78
2023-03-02T16:46:25.589Z,102253.81
2023-03-02T16:48:56.796Z,102260.72
2023-03-02T16:51:27.269Z,102256.34
2023-03-02T16:54:02.528Z,102258.91
2023-03-02T16:56:31.405Z,102257.16
2023-03-02T16:59:00.101Z,102252.81
2023-03-02T17:01:32.086Z,102257.06
2023-03-02T17:03:58.749Z,102260.44
2023-03-02T17:06:31.704Z,102258.66
2023-03-02T17:08:59.756Z,102264.69
2023-03-02T17:11:27.870Z,102255.91
2023-03-02T17:13:56.352Z,102255.00
2023-03-02T17:16:23.178Z,102259.19
2023-03-02T17:18:49.994Z,102253.06
2023-03-02T17:21:18.429Z,102252.94
2023-03-02T17:23:48.226Z,102263.16
2023-03-02T17:26:16.108Z,102259.44
2023-03-02T17:28:42.667Z,102256.69
2023-03-02T17:31:10.389Z,102263.38
2023-03-02T17:33:38.277Z,102267.47
2023-03-02T17:36:13.911Z,102268.09
2023-03-02T17:38:48.461Z,102266.13
2023-03-02T17:41:18.379Z,102268.50
2023-03-02T17:43:53.562Z,102262.19
2023-03-02T17:46:28.808Z,102270.56
2023-03-02T17:49:01.887Z,102259.81
2023-03-02T17:51:32.985Z,102264.00
2023-03-02T17:54:00.977Z,102262.00
2023-03-02T17:56:28.563Z,102261.75
2023-03-02T17:59:00.416Z,102264.78
2023-03-02T18:01:28.864Z,102275.75
2023-03-02T18:03:56.503Z,102272.97
2023-03-02T18:06:23.149Z,102271.03
2023-03-02T18:08:52.561Z,102265.69
2023-03-02T18:11:21.925Z,102264.72
2023-03-02T18:13:54.887Z,102258.47
2023-03-02T18:16:29.239Z,102259.03
2023-03-02T18:18:57.996Z,102270.81
2023-03-02T18:21:28.497Z,102277.28
2023-03-02T18:23:55.953Z,102273.59
2023-03-02T18:26:22.746Z,102276.81
2023-03-02T18:28:49.775Z,102278.44
2023-03-02T18:31:18.176Z,102280.00
2023-03-02T18:33:47.446Z,102279.81
2023-03-02T18:36:15.799Z,102274.34
2023-03-02T18:38:44.858Z,102282.75
2023-03-02T18:41:14.796Z,102282.59
2023-03-02T18:43:43.275Z,102278.03
2023-03-02T18:46:22.709Z,102273.59
2023-03-02T18:48:59.769Z,102282.91
2023-03-02T18:51:32.133Z,102286.13
2023-03-02T18:53:58.679Z,102282.41
2023-03-02T18:56:28.178Z,102286.59
2023-03-02T18:58:55.763Z,102280.28
2023-03-02T19:01:22.557Z,102285.31
2023-03-02T19:03:57.559Z,102286.91
2023-03-02T19:06:27.671Z,102284.13
2023-03-02T19:08:55.135Z,102287.41
2023-03-02T19:11:22.140Z,102295.78
2023-03-02T19:13:48.756Z,102296.47
2023-03-02T19:16:18.385Z,102299.69
2023-03-02T19:18:48.807Z,102301.19
2023-03-02T19:21:17.086Z,102295.84
2023-03-02T19:23:46.539Z,102293.84
2023-03-02T19:26:16.061Z,102299.72
2023-03-02T19:28:47.592Z,102296.06
2023-03-02T19:31:15.258Z,102292.50
2023-03-02T19:33:45.698Z,102294.09
2023-03-02T19:36:13.545Z,102294.78
2023-03-02T19:38:45.839Z,102295.44
2023-03-02T19:41:21.010Z,102298.66
2023-03-02T19:43:48.998Z,102296.69
2023-03-02T19:46:19.709Z,102297.34
2023-03-02T19:48:50.168Z,102306.69
2023-03-02T19:51:17.060Z,102306.44
2023-03-02T19:53:48.785Z,102308.81
2023-03-02T19:56:17.643Z,102312.88
2023-03-02T19:58:49.829Z,102317.91
2023-03-02T20:01:21.732Z,102305.69
2023-03-02T20:03:50.193Z,102307.31
2023-03-02T20:06:17.585Z,102316.75
2023-03-02T20:08:48.538Z,102311.53
2023-03-02T20:11:16.471Z,102310.47
2023-03-02T20:13:43.305Z,102306.06
2023-03-02T20:16:16.172Z,102309.38
2023-03-02T20:18:46.573Z,102313.38
2023-03-02T20:21:13.246Z,102307.88
2023-03-02T20:23:40.008Z,102314.59
2023-03-02T20:26:10.722Z,102312.75
2023-03-02T20:28:37.320Z,102315.09
2023-03-02T20:31:11.968Z,102316.66
2023-03-02T20:33:42.598Z,102313.94
2023-03-02T20:36:09.624Z,102308.63
2023-03-02T20:38:57.483Z,102308.63
2023-03-02T20:41:29.950Z,102317.19
2023-03-02T20:43:57.232Z,102312.81
2023-03-02T20:46:30.121Z,102312.81
2023-03-02T20:48:57.277Z,102311.97
2023-03-02T20:51:25.345Z,102306.81
2023-03-02T20:53:53.150Z,102304.22
2023-03-02T20:56:22.470Z,102302.53
2023-03-02T20:58:51.620Z,102302.53
2023-03-02T21:01:20.124Z,102304.22
2023-03-02T21:03:47.552Z,102303.25
2023-03-02T21:06:18.418Z,102296.25
2023-03-02T21:08:48.954Z,102300.53
2023-03-02T21:11:28.047Z,102293.53
2023-03-02T21:13:56.133Z,102291.75
2023-03-02T21:16:38.120Z,102294.22
2023-03-02T21:19:11.001Z,102288.97
2023-03-02T21:21:42.060Z,102285.38
2023-03-02T21:24:12.051Z,102287.94
2023-03-02T21:26:41.894Z,102279.28
2023-03-02T21:29:10.171Z,102273.16
2023-03-02T21:31:37.085Z,102275.59
2023-03-02T21:34:05.010Z,102284.09
2023-03-02T21:36:34.987Z,102274.56
2023-03-02T21:39:04.287Z,102276.09
2023-03-02T21:41:36.751Z,102291.47
2023-03-02T21:44:07.226Z,102291.34
2023-03-02T21:46:36.569Z,102286.13
2023-03-02T21:49:03.599Z,102284.19
2023-03-02T21:51:30.841Z,102283.16
2023-03-02T21:53:58.049Z,102279.63
2023-03-02T21:56:27.082Z,102277.78
2023-03-02T21:58:59.584Z,102278.53
2023-03-02T22:01:30.041Z,102274.97
2023-03-02T22:03:57.190Z,102274.81
2023-03-02T22:06:28.536Z,102274.75
2023-03-02T22:08:56.952Z,102275.41
2023-03-02T22:11:36.689Z,102281.34
2023-03-02T22:14:14.004Z,102284.75
2023-03-02T22:16:47.995Z,102284.75
2023-03-02T22:19:28.486Z,102282.97
2023-03-02T22:22:00.396Z,102277.75
2023-03-02T22:24:30.444Z,102279.44
2023-03-02T22:27:23.180Z,102283.50
2023-03-02T22:29:52.224Z,102279.88
2023-03-02T22:32:36.716Z,102271.19
2023-03-02T22:35:25.086Z,102276.16
2023-03-02T22:38:00.858Z,102281.16
2023-03-02T22:40:27.728Z,102281.81
2023-03-02T22:43:07.535Z,102280.78
2023-03-02T22:45:35.288Z,102280.66
2023-03-02T22:48:12.920Z,102279.59
2023-03-02T22:50:39.678Z,102281.19
2023-03-02T22:53:21.921Z,102282.81
2023-03-02T22:55:48.705Z,102282.66
2023-03-02T22:58:27.618Z,102278.31
2023-03-02T23:00:54.978Z,102270.44
2023-03-02T23:03:36.882Z,102277.19
2023-03-02T23:06:19.705Z,102268.53
2023-03-02T23:08:49.563Z,102264.09
2023-03-02T23:11:18.948Z,102266.50
2023-03-02T23:13:46.636Z,102268.94
2023-03-02T23:16:15.809Z,102274.78
2023-03-02T23:18:43.666Z,102275.50
2023-03-02T23:21:19.876Z,102278.00
2023-03-02T23:23:48.162Z,102274.47
2023-03-02T23:26:19.478Z,102275.28
2023-03-02T23:28:48.358Z,102270.94
2023-03-02T23:31:16.074Z,102269.16
2023-03-02T23:33:42.607Z,102268.28
2023-03-02T23:36:09.854Z,102263.94
2023-03-02T23:38:37.008Z,102263.88
2023-03-02T23:41:03.785Z,102252.72
2023-03-02T23:43:32.416Z,102257.84
2023-03-02T23:46:01.141Z,102257.03
2023-03-02T23:48:29.150Z,102257.03
2023-03-02T23:50:56.858Z,102251.81
2023-03-02T23:53:23.563Z,102252.72
2023-03-02T23:55:52.561Z,102245.06
2023-03-02T23:58:19.442Z,102244.25
